createdAt,value
2019-05-30T00:01:35.067Z,99.90
2019-05-30T00:04:05.016Z,99.90
2019-05-30T00:06:34.884Z,99.90
2019-05-30T00:09:07.893Z,99.90
2019-05-30T00:11:37.817Z,99.90
2019-05-30T00:14:07.805Z,99.90
2019-05-30T00:16:37.709Z,99.90
2019-05-30T00:19:07.764Z,99.90
2019-05-30T00:21:37.589Z,99.90
2019-05-30T00:24:08.321Z,99.90
2019-05-30T00:26:38.244Z,99.90
2019-05-30T00:29:08.082Z,99.90
2019-05-30T00:31:37.984Z,99.90
2019-05-30T00:34:07.908Z,99.90
2019-05-30T00:36:37.820Z,99.90
2019-05-30T00:39:08.114Z,99.90
2019-05-30T00:41:37.998Z,99.90
2019-05-30T00:44:07.948Z,99.90
2019-05-30T00:46:37.910Z,99.90
2019-05-30T00:49:07.808Z,99.90
2019-05-30T00:51:37.812Z,99.90
2019-05-30T00:54:07.898Z,99.90
2019-05-30T00:56:37.740Z,99.90
2019-05-30T00:59:07.709Z,99.90
2019-05-30T01:01:37.626Z,99.90
2019-05-30T01:04:07.595Z,99.90
2019-05-30T01:06:37.451Z,99.90
2019-05-30T01:09:07.675Z,99.90
2019-05-30T01:11:37.624Z,99.90
2019-05-30T01:14:07.620Z,99.90
2019-05-30T01:16:37.567Z,99.90
2019-05-30T01:19:07.437Z,99.90
2019-05-30T01:21:37.363Z,99.90
2019-05-30T01:24:07.710Z,99.90
2019-05-30T01:26:37.747Z,99.90
2019-05-30T01:29:07.896Z,99.90
2019-05-30T01:31:37.769Z,99.90
2019-05-30T01:34:07.939Z,99.90
2019-05-30T01:36:37.964Z,99.90
2019-05-30T01:39:08.638Z,99.90
2019-05-30T01:41:38.456Z,99.90
2019-05-30T01:44:08.449Z,99.90
2019-05-30T01:46:38.331Z,99.90
2019-05-30T01:49:08.742Z,99.90
2019-05-30T01:51:38.799Z,99.90
2019-05-30T01:54:08.911Z,99.90
2019-05-30T01:56:47.726Z,99.90
2019-05-30T01:59:17.583Z,99.90
2019-05-30T02:01:47.504Z,99.90
2019-05-30T02:04:17.468Z,99.90
2019-05-30T02:06:47.324Z,99.90
2019-05-30T02:09:17.227Z,99.90
2019-05-30T02:11:47.219Z,99.90
2019-05-30T02:14:17.049Z,99.90
2019-05-30T02:16:47.088Z,99.90
2019-05-30T02:19:16.947Z,99.90
2019-05-30T02:21:46.861Z,99.90
2019-05-30T02:24:16.938Z,99.90
2019-05-30T02:26:46.743Z,99.90
2019-05-30T02:29:16.555Z,99.90
2019-05-30T02:31:46.322Z,99.90
2019-05-30T02:34:16.283Z,99.90
2019-05-30T02:36:46.298Z,99.90
2019-05-30T02:39:16.264Z,99.90
2019-05-30T02:41:46.184Z,99.90
2019-05-30T02:44:16.126Z,99.90
2019-05-30T02:46:48.719Z,99.90
2019-05-30T02:49:18.617Z,99.90
2019-05-30T02:51:48.603Z,99.90
2019-05-30T02:54:18.446Z,99.90
2019-05-30T02:56:48.329Z,99.90
2019-05-30T02:59:18.197Z,99.90
2019-05-30T03:02:00.815Z,99.90
2019-05-30T03:04:19.460Z,99.90
2019-05-30T03:06:49.548Z,99.90
2019-05-30T03:09:19.522Z,99.90
2019-05-30T03:11:49.435Z,99.90
2019-05-30T03:14:20.097Z,99.90
2019-05-30T03:16:50.051Z,99.90
2019-05-30T03:19:20.066Z,99.90
2019-05-30T03:21:50.087Z,99.90
2019-05-30T03:24:20.071Z,99.90
2019-05-30T03:26:49.912Z,99.90
2019-05-30T03:29:20.070Z,99.90
2019-05-30T03:31:51.687Z,99.90
2019-05-30T03:34:27.375Z,99.90
2019-05-30T03:36:53.193Z,99.90
2019-05-30T03:39:23.119Z,99.90
2019-05-30T03:41:52.948Z,99.90
2019-05-30T03:44:22.905Z,99.90
2019-05-30T03:46:55.166Z,99.90
2019-05-30T03:49:28.025Z,99.90
2019-05-30T03:52:00.741Z,99.90
2019-05-30T03:54:31.308Z,99.90
2019-05-30T03:57:26.502Z,99.90
2019-05-30T04:00:02.601Z,99.90
2019-05-30T04:02:56.984Z,99.90
2019-05-30T04:05:24.627Z,99.90
2019-05-30T04:07:58.045Z,99.90
2019-05-30T04:10:33.536Z,99.90
2019-05-30T04:13:23.403Z,99.90
2019-05-30T04:15:53.311Z,99.90
2019-05-30T04:18:23.131Z,99.90
2019-05-30T04:20:53.045Z,99.90
2019-05-30T04:23:22.866Z,99.90
2019-05-30T04:25:52.760Z,99.90
2019-05-30T04:28:22.676Z,99.90
2019-05-30T04:30:52.525Z,99.90
2019-05-30T04:33:32.655Z,99.90
2019-05-30T04:35:53.897Z,99.90
2019-05-30T04:38:23.774Z,99.90
2019-05-30T04:40:53.741Z,99.90
2019-05-30T04:43:23.680Z,99.90
2019-05-30T04:45:53.571Z,99.90
2019-05-30T04:48:23.377Z,99.90
2019-05-30T04:50:53.223Z,99.90
2019-05-30T04:53:23.189Z,99.90
2019-05-30T04:55:53.118Z,99.90
2019-05-30T04:58:24.284Z,99.90
2019-05-30T05:00:54.471Z,99.90
2019-05-30T05:03:44.613Z,99.90
2019-05-30T05:05:55.787Z,99.90
2019-05-30T05:08:25.714Z,99.90
2019-05-30T05:10:56.085Z,99.90
2019-05-30T05:13:25.949Z,99.90
2019-05-30T05:15:55.873Z,99.90
2019-05-30T05:18:25.830Z,99.90
2019-05-30T05:20:55.711Z,99.90
2019-05-30T05:23:25.556Z,99.90
2019-05-30T05:26:01.013Z,99.90
2019-05-30T05:28:26.869Z,99.90
2019-05-30T05:30:59.824Z,99.90
2019-05-30T05:33:30.397Z,99.90
2019-05-30T05:36:00.417Z,99.90
2019-05-30T05:38:30.248Z,99.90
2019-05-30T05:41:00.137Z,99.90
2019-05-30T05:43:30.097Z,99.90
2019-05-30T05:45:59.885Z,99.90
2019-05-30T05:48:30.026Z,99.90
2019-05-30T05:50:59.889Z,99.90
2019-05-30T05:53:30.314Z,99.90
2019-05-30T05:56:00.125Z,99.90
2019-05-30T05:58:30.101Z,99.90
2019-05-30T06:01:00.007Z,99.90
2019-05-30T06:03:30.026Z,99.90
2019-05-30T06:05:59.801Z,99.90
2019-05-30T06:08:29.736Z,99.90
2019-05-30T06:10:59.576Z,95.90
2019-05-30T06:13:29.533Z,94.40
2019-05-30T06:15:59.543Z,95.70
2019-05-30T06:18:29.454Z,96.70
2019-05-30T06:20:59.527Z,95.20
2019-05-30T06:23:29.976Z,93.30
2019-05-30T06:25:59.980Z,89.90
2019-05-30T06:28:30.227Z,86.60
2019-05-30T06:31:00.045Z,86.80
2019-05-30T06:33:30.001Z,86.10
2019-05-30T06:36:00.136Z,82.90
2019-05-30T06:38:30.222Z,84.00
2019-05-30T06:41:00.171Z,77.60
2019-05-30T06:43:30.357Z,82.70
2019-05-30T06:46:00.298Z,80.20
2019-05-30T06:48:30.924Z,75.10
2019-05-30T06:51:01.178Z,78.40
2019-05-30T06:53:31.449Z,74.20
2019-05-30T06:56:01.558Z,81.10
2019-05-30T06:58:47.338Z,70.10
2019-05-30T07:01:03.495Z,68.30
2019-05-30T07:03:33.530Z,72.70
2019-05-30T07:06:06.475Z,70.70
2019-05-30T07:08:36.999Z,71.70
2019-05-30T07:11:07.256Z,70.00
2019-05-30T07:13:37.311Z,70.40
2019-05-30T07:16:07.122Z,67.10
2019-05-30T07:18:37.058Z,63.30
2019-05-30T07:21:07.091Z,65.80
2019-05-30T07:23:39.533Z,67.30
2019-05-30T07:26:08.717Z,58.80
2019-05-30T07:28:39.005Z,60.60
2019-05-30T07:31:08.863Z,60.30
2019-05-30T07:33:38.870Z,57.00
2019-05-30T07:36:08.729Z,56.20
2019-05-30T07:38:39.528Z,57.90
2019-05-30T07:41:09.429Z,56.70
2019-05-30T07:43:39.417Z,57.20
2019-05-30T07:46:09.370Z,55.30
2019-05-30T07:48:39.276Z,56.10
2019-05-30T07:51:09.303Z,56.80
2019-05-30T07:53:39.423Z,55.90
2019-05-30T07:56:09.432Z,56.70
2019-05-30T07:58:39.339Z,57.10
2019-05-30T08:01:09.513Z,57.40
2019-05-30T08:03:39.479Z,56.10
2019-05-30T08:06:09.354Z,52.90
2019-05-30T08:08:39.269Z,54.00
2019-05-30T08:11:10.341Z,53.90
2019-05-30T08:13:40.332Z,55.10
2019-05-30T08:16:10.190Z,54.10
2019-05-30T08:18:40.247Z,51.40
2019-05-30T08:21:10.123Z,53.70
2019-05-30T08:23:40.022Z,53.50
2019-05-30T08:26:09.889Z,51.70
2019-05-30T08:28:42.602Z,53.10
2019-05-30T08:31:11.356Z,53.90
2019-05-30T08:33:41.176Z,50.70
2019-05-30T08:36:11.196Z,51.00
2019-05-30T08:38:40.994Z,52.90
2019-05-30T08:41:11.063Z,51.80
2019-05-30T08:43:40.832Z,50.60
2019-05-30T08:46:10.955Z,53.00
2019-05-30T08:48:40.893Z,49.10
2019-05-30T08:51:10.896Z,50.40
2019-05-30T08:53:40.760Z,49.80
2019-05-30T08:56:10.655Z,51.30
2019-05-30T08:58:40.935Z,50.40
2019-05-30T09:01:11.196Z,48.00
2019-05-30T09:03:42.154Z,48.90
2019-05-30T09:06:12.251Z,49.00
2019-05-30T09:08:42.292Z,47.00
2019-05-30T09:11:12.185Z,48.40
2019-05-30T09:13:42.632Z,49.60
2019-05-30T09:16:13.137Z,48.10
2019-05-30T09:18:43.525Z,48.20
2019-05-30T09:21:13.378Z,49.40
2019-05-30T09:23:43.971Z,47.00
2019-05-30T09:26:14.013Z,48.80
2019-05-30T09:28:44.210Z,48.60
2019-05-30T09:31:14.225Z,48.20
2019-05-30T09:33:44.654Z,47.00
2019-05-30T09:36:14.967Z,46.70
2019-05-30T09:38:45.478Z,48.20
2019-05-30T09:41:15.662Z,47.70
2019-05-30T09:43:46.409Z,48.10
2019-05-30T09:46:16.524Z,48.30
2019-05-30T09:48:46.751Z,46.10
2019-05-30T09:51:16.707Z,45.30
2019-05-30T09:53:46.517Z,48.30
2019-05-30T09:56:16.436Z,48.30
2019-05-30T09:58:47.646Z,47.80
2019-05-30T10:01:17.795Z,48.40
2019-05-30T10:03:48.491Z,50.00
2019-05-30T10:06:28.870Z,47.20
2019-05-30T10:08:51.100Z,47.90
2019-05-30T10:11:21.138Z,46.60
2019-05-30T10:13:51.254Z,48.80
2019-05-30T10:16:22.477Z,48.30
2019-05-30T10:18:52.842Z,47.50
2019-05-30T10:21:23.095Z,47.80
2019-05-30T10:23:53.707Z,47.20
2019-05-30T10:26:23.722Z,47.20
2019-05-30T10:28:53.692Z,46.90
2019-05-30T10:31:23.597Z,46.00
2019-05-30T10:33:53.440Z,47.20
2019-05-30T10:36:23.402Z,47.40
2019-05-30T10:38:53.960Z,46.20
2019-05-30T10:41:23.851Z,46.30
2019-05-30T10:43:53.673Z,47.90
2019-05-30T10:46:23.537Z,47.50
2019-05-30T10:48:54.533Z,45.20
2019-05-30T10:51:24.725Z,45.20
2019-05-30T10:53:55.742Z,46.30
2019-05-30T10:56:27.945Z,44.90
2019-05-30T10:58:57.716Z,46.50
2019-05-30T11:01:27.716Z,46.90
2019-05-30T11:03:57.517Z,46.10
2019-05-30T11:07:01.128Z,46.70
2019-05-30T11:09:21.740Z,47.90
2019-05-30T11:11:52.963Z,44.60
2019-05-30T11:14:22.777Z,45.10
2019-05-30T11:16:53.892Z,45.50
2019-05-30T11:19:23.743Z,45.40
2019-05-30T11:21:54.599Z,46.60
2019-05-30T11:24:24.597Z,45.40
2019-05-30T11:26:55.545Z,45.40
2019-05-30T11:29:26.154Z,45.90
2019-05-30T11:31:56.979Z,47.00
2019-05-30T11:34:27.016Z,46.50
2019-05-30T11:36:57.273Z,46.50
2019-05-30T11:39:27.265Z,45.50
2019-05-30T11:41:57.656Z,44.60
2019-05-30T11:44:27.685Z,46.50
2019-05-30T11:46:57.746Z,45.80
2019-05-30T11:49:27.739Z,45.10
2019-05-30T11:51:57.877Z,45.50
2019-05-30T11:54:28.085Z,45.60
2019-05-30T11:56:58.145Z,45.30
2019-05-30T11:59:28.165Z,45.40
2019-05-30T12:01:58.478Z,48.30
2019-05-30T12:04:28.497Z,47.00
2019-05-30T12:06:58.886Z,45.60
2019-05-30T12:09:28.901Z,45.00
2019-05-30T12:11:59.234Z,45.90
2019-05-30T12:14:29.271Z,45.40
2019-05-30T12:16:59.477Z,44.50
2019-05-30T12:19:29.414Z,44.30
2019-05-30T12:21:59.913Z,44.50
2019-05-30T12:24:29.991Z,44.00
2019-05-30T12:27:00.128Z,45.00
2019-05-30T12:29:30.045Z,45.00
2019-05-30T12:32:00.686Z,45.50
2019-05-30T12:34:31.360Z,45.60
2019-05-30T12:37:02.826Z,46.80
2019-05-30T12:39:33.132Z,44.00
2019-05-30T12:42:03.350Z,44.00
2019-05-30T12:44:33.781Z,46.20
2019-05-30T12:47:04.480Z,45.10
2019-05-30T12:49:34.490Z,45.80
2019-05-30T12:52:05.875Z,45.70
2019-05-30T12:54:36.007Z,46.10
2019-05-30T12:57:07.057Z,44.30
2019-05-30T12:59:37.213Z,44.00
2019-05-30T13:02:07.323Z,44.30
2019-05-30T13:04:37.244Z,44.80
2019-05-30T13:07:07.678Z,43.90
2019-05-30T13:09:37.897Z,44.20
2019-05-30T13:12:07.911Z,45.00
2019-05-30T13:14:39.008Z,43.60
2019-05-30T13:17:08.822Z,42.50
2019-05-30T13:19:38.843Z,42.50
2019-05-30T13:22:08.753Z,43.40
2019-05-30T13:24:38.781Z,42.00
2019-05-30T13:27:08.945Z,42.10
2019-05-30T13:29:39.101Z,41.90
2019-05-30T13:32:11.097Z,41.20
2019-05-30T13:34:41.063Z,43.10
2019-05-30T13:37:10.900Z,42.10
2019-05-30T13:39:40.886Z,44.10
2019-05-30T13:42:10.707Z,42.30
2019-05-30T13:44:40.560Z,43.00
2019-05-30T13:47:10.664Z,44.00
2019-05-30T13:49:40.486Z,41.90
2019-05-30T13:52:10.385Z,42.40
2019-05-30T13:54:40.367Z,41.70
2019-05-30T13:57:10.243Z,41.50
2019-05-30T13:59:40.272Z,43.60
2019-05-30T14:02:10.319Z,41.50
2019-05-30T14:04:40.327Z,43.00
2019-05-30T14:07:10.521Z,42.70
2019-05-30T14:09:40.543Z,42.50
2019-05-30T14:12:10.700Z,41.20
2019-05-30T14:14:40.689Z,41.70
2019-05-30T14:17:13.259Z,41.30
2019-05-30T14:19:42.761Z,42.00
2019-05-30T14:22:12.583Z,42.40
2019-05-30T14:24:42.500Z,43.60
2019-05-30T14:27:12.467Z,41.90
2019-05-30T14:29:42.316Z,42.80
2019-05-30T14:32:12.390Z,41.80
2019-05-30T14:34:42.225Z,40.80
2019-05-30T14:37:12.603Z,41.60
2019-05-30T14:39:42.665Z,42.20
2019-05-30T14:42:13.285Z,43.80
2019-05-30T14:44:43.392Z,42.50
2019-05-30T14:47:13.365Z,42.20
2019-05-30T14:49:43.337Z,42.60
2019-05-30T14:52:13.397Z,42.90
2019-05-30T14:54:43.434Z,44.20
2019-05-30T14:57:13.283Z,45.00
2019-05-30T14:59:43.235Z,45.80
2019-05-30T15:02:13.306Z,46.00
2019-05-30T15:04:43.230Z,46.60
2019-05-30T15:07:13.643Z,46.40
2019-05-30T15:09:44.028Z,46.30
2019-05-30T15:12:13.991Z,46.70
2019-05-30T15:14:44.023Z,46.20
2019-05-30T15:17:14.361Z,45.60
2019-05-30T15:19:44.360Z,45.00
2019-05-30T15:22:17.071Z,45.00
2019-05-30T15:24:45.681Z,45.60
2019-05-30T15:27:16.292Z,47.00
2019-05-30T15:29:46.241Z,47.00
2019-05-30T15:32:16.581Z,46.40
2019-05-30T15:34:46.460Z,48.10
2019-05-30T15:37:16.984Z,48.30
2019-05-30T15:39:46.920Z,47.70
2019-05-30T15:42:17.730Z,47.80
2019-05-30T15:44:47.585Z,49.10
2019-05-30T15:47:18.480Z,48.40
2019-05-30T15:49:52.024Z,49.60
2019-05-30T15:52:20.055Z,49.20
2019-05-30T15:54:49.878Z,49.40
2019-05-30T15:57:19.720Z,49.10
2019-05-30T15:59:49.578Z,49.30
2019-05-30T16:02:20.478Z,51.80
2019-05-30T16:04:56.710Z,49.20
2019-05-30T16:07:26.536Z,49.30
2019-05-30T16:09:58.103Z,49.20
2019-05-30T16:12:28.790Z,49.30
2019-05-30T16:15:06.976Z,50.10
2019-05-30T16:17:50.714Z,50.60
2019-05-30T16:20:22.428Z,51.10
2019-05-30T16:23:05.385Z,50.20
2019-05-30T16:25:37.585Z,50.70
2019-05-30T16:28:10.163Z,52.00
2019-05-30T16:33:34.712Z,52.60
2019-05-30T16:36:08.099Z,52.00
2019-05-30T16:38:38.426Z,54.30
2019-05-30T16:41:09.831Z,55.40
2019-05-30T16:43:58.005Z,52.50
2019-05-30T16:46:30.295Z,52.40
2019-05-30T16:49:01.049Z,55.50
2019-05-30T16:51:31.828Z,54.20
2019-05-30T16:54:08.507Z,57.30
2019-05-30T16:56:46.718Z,55.60
2019-05-30T16:59:29.801Z,55.30
2019-05-30T17:02:08.875Z,57.70
2019-05-30T17:04:48.611Z,58.90
2019-05-30T17:07:27.557Z,60.20
2019-05-30T17:09:58.012Z,61.00
2019-05-30T17:12:29.396Z,62.40
2019-05-30T17:15:01.194Z,62.40
2019-05-30T17:17:38.042Z,61.30
2019-05-30T17:20:09.510Z,62.80
2019-05-30T17:23:07.216Z,63.90
2019-05-30T17:25:37.543Z,63.80
2019-05-30T17:28:22.359Z,64.50
2019-05-30T17:30:57.712Z,65.90
2019-05-30T17:33:42.898Z,67.00
2019-05-30T17:36:19.983Z,68.80
2019-05-30T17:39:10.507Z,70.80
2019-05-30T17:41:40.450Z,71.30
2019-05-30T17:44:16.348Z,72.80
2019-05-30T17:46:48.581Z,73.50
2019-05-30T17:49:32.639Z,74.00
2019-05-30T17:52:13.941Z,76.10
2019-05-30T17:54:46.456Z,77.30
2019-05-30T17:57:26.692Z,75.80
2019-05-30T18:00:10.925Z,75.40
2019-05-30T18:02:42.670Z,76.70
2019-05-30T18:05:15.735Z,77.30
2019-05-30T18:07:46.026Z,78.60
2019-05-30T18:10:16.142Z,78.60
2019-05-30T18:12:46.669Z,79.30
2019-05-30T18:15:18.293Z,80.50
2019-05-30T18:17:48.159Z,80.90
2019-05-30T18:20:19.645Z,80.90
2019-05-30T18:22:49.487Z,82.30
2019-05-30T18:25:19.532Z,82.50
2019-05-30T18:27:49.419Z,82.00
2019-05-30T18:30:19.761Z,83.40
2019-05-30T18:32:49.605Z,85.90
2019-05-30T18:35:19.660Z,85.90
2019-05-30T18:37:49.525Z,86.60
2019-05-30T18:40:31.092Z,88.50
2019-05-30T18:43:00.979Z,90.50
2019-05-30T18:45:41.801Z,91.10
2019-05-30T18:48:14.969Z,91.70
2019-05-30T18:50:44.775Z,92.20
2019-05-30T18:53:14.583Z,92.60
2019-05-30T18:55:44.426Z,92.90
2019-05-30T18:58:14.275Z,93.60
2019-05-30T19:00:44.133Z,94.40
2019-05-30T19:03:14.043Z,96.00
2019-05-30T19:05:44.017Z,97.80
2019-05-30T19:08:13.880Z,99.30
2019-05-30T19:10:43.905Z,99.90
2019-05-30T19:13:16.061Z,99.90
2019-05-30T19:15:46.062Z,99.90
2019-05-30T19:18:16.312Z,99.90
2019-05-30T19:20:46.575Z,99.90
2019-05-30T19:23:18.486Z,99.90
2019-05-30T19:25:48.330Z,99.90
2019-05-30T19:28:18.604Z,99.90
2019-05-30T19:30:48.703Z,99.90
2019-05-30T19:33:20.940Z,99.90
2019-05-30T19:35:50.784Z,99.90
2019-05-30T19:38:20.609Z,99.90
2019-05-30T19:40:50.495Z,99.90
2019-05-30T19:43:20.304Z,99.90
2019-05-30T19:45:50.226Z,99.90
2019-05-30T19:48:20.085Z,99.90
2019-05-30T19:50:50.009Z,99.90
2019-05-30T19:53:19.887Z,99.90
2019-05-30T19:55:50.593Z,99.90
2019-05-30T19:58:20.449Z,99.90
2019-05-30T20:00:58.528Z,99.90
2019-05-30T20:03:35.801Z,99.90
2019-05-30T20:05:53.886Z,99.90
2019-05-30T20:08:23.762Z,99.90
2019-05-30T20:10:53.685Z,99.90
2019-05-30T20:13:23.850Z,99.90
2019-05-30T20:15:56.534Z,99.90
2019-05-30T20:18:26.417Z,99.90
2019-05-30T20:20:57.812Z,99.90
2019-05-30T20:23:30.050Z,99.90
2019-05-30T20:25:59.912Z,99.90
2019-05-30T20:28:29.779Z,99.90
2019-05-30T20:31:02.426Z,99.90
2019-05-30T20:33:32.304Z,99.90
2019-05-30T20:36:02.157Z,99.90
2019-05-30T20:38:32.090Z,99.90
2019-05-30T20:41:01.920Z,99.90
2019-05-30T20:43:33.353Z,99.90
2019-05-30T20:46:03.200Z,99.90
2019-05-30T20:48:33.132Z,99.90
2019-05-30T20:51:03.346Z,99.90
2019-05-30T20:53:33.233Z,99.90
2019-05-30T20:56:03.102Z,99.90
2019-05-30T20:58:33.278Z,99.90
2019-05-30T21:01:03.401Z,99.90
2019-05-30T21:03:33.410Z,99.90
2019-05-30T21:06:04.010Z,99.90
2019-05-30T21:08:34.908Z,99.90
2019-05-30T21:11:04.991Z,99.90
2019-05-30T21:13:36.298Z,99.90
2019-05-30T21:16:07.650Z,99.90
2019-05-30T21:18:37.794Z,99.90
2019-05-30T21:21:07.656Z,99.90
2019-05-30T21:23:38.288Z,99.90
2019-05-30T21:26:08.251Z,99.90
2019-05-30T21:28:38.703Z,99.90
2019-05-30T21:31:09.975Z,99.90
2019-05-30T21:33:41.600Z,99.90
2019-05-30T21:36:11.710Z,99.90
2019-05-30T21:38:41.951Z,99.90
2019-05-30T21:41:11.800Z,99.90
2019-05-30T21:43:42.383Z,99.90
2019-05-30T21:46:12.270Z,99.90
2019-05-30T21:48:42.918Z,99.90
2019-05-30T21:51:13.126Z,99.90
2019-05-30T21:53:43.497Z,99.90
2019-05-30T21:56:13.608Z,99.90
2019-05-30T21:58:44.095Z,99.90
2019-05-30T22:01:34.182Z,99.90
2019-05-30T22:04:04.867Z,99.90
2019-05-30T22:06:34.746Z,99.90
2019-05-30T22:09:07.836Z,99.90
2019-05-30T22:11:37.661Z,99.90
2019-05-30T22:14:07.760Z,99.90
2019-05-30T22:16:37.546Z,99.90
2019-05-30T22:19:07.800Z,99.90
2019-05-30T22:21:37.631Z,99.90
2019-05-30T22:24:07.455Z,99.90
2019-05-30T22:26:37.272Z,99.90
2019-05-30T22:29:07.128Z,99.90
2019-05-30T22:31:36.929Z,99.90
2019-05-30T22:34:06.912Z,99.90
2019-05-30T22:36:36.729Z,99.90
2019-05-30T22:39:08.978Z,99.90
2019-05-30T22:41:38.982Z,99.90
2019-05-30T22:44:08.981Z,99.90
2019-05-30T22:46:41.430Z,99.90
2019-05-30T22:49:11.331Z,99.90
2019-05-30T22:51:41.199Z,99.90
2019-05-30T22:54:11.043Z,99.90
2019-05-30T22:56:40.922Z,99.90
2019-05-30T22:59:10.719Z,99.90
2019-05-30T23:01:40.553Z,99.90
2019-05-30T23:04:12.276Z,99.90
2019-05-30T23:06:42.042Z,99.90
2019-05-30T23:09:11.942Z,99.90
2019-05-30T23:11:41.790Z,99.90
2019-05-30T23:14:11.582Z,99.90
2019-05-30T23:16:41.569Z,99.90
2019-05-30T23:19:11.369Z,99.90
2019-05-30T23:21:41.397Z,99.90
2019-05-30T23:24:11.352Z,99.90
2019-05-30T23:26:41.435Z,99.90
2019-05-30T23:29:11.702Z,99.90
2019-05-30T23:31:41.522Z,99.90
2019-05-30T23:34:11.466Z,99.90
2019-05-30T23:36:41.293Z,99.90
2019-05-30T23:39:11.173Z,99.90
2019-05-30T23:41:41.007Z,99.90
2019-05-30T23:44:11.932Z,99.90
2019-05-30T23:46:42.032Z,99.90
2019-05-30T23:49:11.854Z,99.90
2019-05-30T23:51:41.745Z,99.90
2019-05-30T23:54:11.541Z,99.90
2019-05-30T23:56:42.514Z,99.90
2019-05-30T23:59:12.551Z,99.90
